createdAt,value
2022-10-28T00:00:37.484Z,973.96
2022-10-28T00:01:37.512Z,973.94
2022-10-28T00:02:37.403Z,973.90
2022-10-28T00:03:37.334Z,973.91
2022-10-28T00:04:37.282Z,973.91
2022-10-28T00:05:37.254Z,973.89
2022-10-28T00:06:37.179Z,973.90
2022-10-28T00:07:37.123Z,973.88
2022-10-28T00:08:37.076Z,973.85
2022-10-28T00:09:37.021Z,973.83
2022-10-28T00:10:36.973Z,973.86
2022-10-28T00:11:36.938Z,973.85
2022-10-28T00:12:36.868Z,973.85
2022-10-28T00:13:36.816Z,973.86
2022-10-28T00:14:37.497Z,973.88
2022-10-28T00:15:36.717Z,973.91
2022-10-28T00:16:36.687Z,973.88
2022-10-28T00:17:36.613Z,973.93
2022-10-28T00:18:36.563Z,973.94
2022-10-28T00:19:36.507Z,973.96
2022-10-28T00:20:36.457Z,973.95
2022-10-28T00:21:36.448Z,973.94
2022-10-28T00:22:36.379Z,973.97
2022-10-28T00:23:36.300Z,973.96
2022-10-28T00:24:36.251Z,973.97
2022-10-28T00:25:36.204Z,973.92
2022-10-28T00:26:36.149Z,973.99
2022-10-28T00:27:36.098Z,973.96
2022-10-28T00:28:36.071Z,973.96
2022-10-28T00:29:35.992Z,973.91
2022-10-28T00:30:35.948Z,973.94
2022-10-28T00:31:35.895Z,973.92
2022-10-28T00:32:35.841Z,973.91
2022-10-28T00:33:35.785Z,973.91
2022-10-28T00:34:35.757Z,973.93
2022-10-28T00:35:35.683Z,973.93
2022-10-28T00:36:35.637Z,973.97
2022-10-28T00:37:35.585Z,973.92
2022-10-28T00:38:35.530Z,973.90
2022-10-28T00:39:35.515Z,973.94
2022-10-28T00:40:35.428Z,973.94
2022-10-28T00:41:35.374Z,973.88
2022-10-28T00:42:35.323Z,973.87
2022-10-28T00:43:35.272Z,973.82
2022-10-28T00:44:35.224Z,973.87
2022-10-28T00:45:35.186Z,973.87
2022-10-28T00:46:35.117Z,973.80
2022-10-28T00:47:35.066Z,973.84
2022-10-28T00:48:35.018Z,973.80
2022-10-28T00:49:34.962Z,973.81
2022-10-28T00:50:34.931Z,973.86
2022-10-28T00:51:34.860Z,973.80
2022-10-28T00:52:34.808Z,973.79
2022-10-28T00:53:34.754Z,973.79
2022-10-28T00:54:34.707Z,973.84
2022-10-28T00:55:34.671Z,973.81
2022-10-28T00:56:34.602Z,973.81
2022-10-28T00:57:34.551Z,973.78
2022-10-28T00:58:34.502Z,973.80
2022-10-28T00:59:34.449Z,973.79
2022-10-28T01:00:34.421Z,973.75
2022-10-28T01:01:34.495Z,973.79
2022-10-28T01:02:34.340Z,973.86
2022-10-28T01:03:34.244Z,973.84
2022-10-28T01:04:34.190Z,973.93
2022-10-28T01:05:34.165Z,973.91
2022-10-28T01:06:34.090Z,973.95
2022-10-28T01:07:34.036Z,973.92
2022-10-28T01:08:33.986Z,973.92
2022-10-28T01:09:33.942Z,973.95
2022-10-28T01:10:33.883Z,973.96
2022-10-28T01:11:33.863Z,974.01
2022-10-28T01:12:33.779Z,974.00
2022-10-28T01:13:33.729Z,973.97
2022-10-28T01:14:33.677Z,973.93
2022-10-28T01:15:33.623Z,973.92
2022-10-28T01:16:33.574Z,973.87
2022-10-28T01:17:33.546Z,973.84
2022-10-28T01:18:33.475Z,973.82
2022-10-28T01:19:33.418Z,973.85
2022-10-28T01:20:36.191Z,973.82
2022-10-28T01:21:33.319Z,973.85
2022-10-28T01:22:33.368Z,973.83
2022-10-28T01:23:33.238Z,973.85
2022-10-28T01:24:33.162Z,973.81
2022-10-28T01:25:33.110Z,973.83
2022-10-28T01:26:33.057Z,973.82
2022-10-28T01:27:33.008Z,973.79
2022-10-28T01:28:32.956Z,973.82
2022-10-28T01:29:32.928Z,973.79
2022-10-28T01:30:32.855Z,973.84
2022-10-28T01:31:32.807Z,973.82
2022-10-28T01:32:32.752Z,973.83
2022-10-28T01:33:32.697Z,973.84
2022-10-28T01:34:32.646Z,973.83
2022-10-28T01:35:32.637Z,973.71
2022-10-28T01:36:32.540Z,973.73
2022-10-28T01:37:32.489Z,973.75
2022-10-28T01:38:32.437Z,973.68
2022-10-28T01:39:32.386Z,973.66
2022-10-28T01:40:32.357Z,973.66
2022-10-28T01:41:32.286Z,973.64
2022-10-28T01:42:32.234Z,973.63
2022-10-28T01:43:32.180Z,973.58
2022-10-28T01:44:32.130Z,973.57
2022-10-28T01:45:32.077Z,973.57
2022-10-28T01:46:32.044Z,973.58
2022-10-28T01:47:31.970Z,973.57
2022-10-28T01:48:32.002Z,973.55
2022-10-28T01:49:31.874Z,973.54
2022-10-28T01:50:31.816Z,973.55
2022-10-28T01:51:31.789Z,973.54
2022-10-28T01:52:31.715Z,973.58
2022-10-28T01:53:31.661Z,973.58
2022-10-28T01:54:31.620Z,973.55
2022-10-28T01:55:31.559Z,973.59
2022-10-28T01:56:31.508Z,973.55
2022-10-28T01:57:31.474Z,973.55
2022-10-28T01:58:31.402Z,973.53
2022-10-28T01:59:31.352Z,973.53
2022-10-28T02:00:31.370Z,973.51
2022-10-28T02:01:31.425Z,973.49
2022-10-28T02:02:31.214Z,973.51
2022-10-28T02:03:31.145Z,973.52
2022-10-28T02:04:31.095Z,973.46
2022-10-28T02:05:31.042Z,973.52
2022-10-28T02:06:30.990Z,973.49
2022-10-28T02:07:30.965Z,973.51
2022-10-28T02:08:30.883Z,973.47
2022-10-28T02:09:30.834Z,973.49
2022-10-28T02:10:30.782Z,973.44
2022-10-28T02:11:30.731Z,973.44
2022-10-28T02:12:30.677Z,973.42
2022-10-28T02:13:30.651Z,973.44
2022-10-28T02:14:30.575Z,973.45
2022-10-28T02:15:30.523Z,973.52
2022-10-28T02:16:30.475Z,973.51
2022-10-28T02:17:30.419Z,973.51
2022-10-28T02:18:30.370Z,973.53
2022-10-28T02:19:30.340Z,973.51
2022-10-28T02:20:30.264Z,973.49
2022-10-28T02:21:30.212Z,973.53
2022-10-28T02:22:30.162Z,973.49
2022-10-28T02:23:30.105Z,973.47
2022-10-28T02:24:30.056Z,973.51
2022-10-28T02:25:30.023Z,973.45
2022-10-28T02:26:29.954Z,973.50
2022-10-28T02:27:29.902Z,973.51
2022-10-28T02:28:29.851Z,973.45
2022-10-28T02:29:29.801Z,973.44
2022-10-28T02:30:29.769Z,973.47
2022-10-28T02:31:29.694Z,973.54
2022-10-28T02:32:29.648Z,973.47
2022-10-28T02:33:29.589Z,973.48
2022-10-28T02:34:29.548Z,973.45
2022-10-28T02:35:29.491Z,973.45
2022-10-28T02:36:29.466Z,973.47
2022-10-28T02:37:29.384Z,973.47
2022-10-28T02:38:29.333Z,973.46
2022-10-28T02:39:29.289Z,973.42
2022-10-28T02:40:29.239Z,973.42
2022-10-28T02:41:29.196Z,973.44
2022-10-28T02:42:29.120Z,973.41
2022-10-28T02:43:29.072Z,973.38
2022-10-28T02:44:29.024Z,973.34
2022-10-28T02:45:28.969Z,973.33
2022-10-28T02:46:28.938Z,973.33
2022-10-28T02:47:28.861Z,973.31
2022-10-28T02:48:28.811Z,973.31
2022-10-28T02:49:28.757Z,973.29
2022-10-28T02:50:28.706Z,973.29
2022-10-28T02:51:28.653Z,973.28
2022-10-28T02:52:28.628Z,973.29
2022-10-28T02:53:28.552Z,973.23
2022-10-28T02:54:28.498Z,973.25
2022-10-28T02:55:28.446Z,973.25
2022-10-28T02:56:28.395Z,973.28
2022-10-28T02:57:28.343Z,973.25
2022-10-28T02:58:28.320Z,973.27
2022-10-28T02:59:28.234Z,973.27
2022-10-28T03:00:28.186Z,973.28
2022-10-28T03:01:28.263Z,973.25
2022-10-28T03:02:28.082Z,973.21
2022-10-28T03:03:28.040Z,973.23
2022-10-28T03:04:27.995Z,973.26
2022-10-28T03:05:27.927Z,973.26
2022-10-28T03:06:27.876Z,973.25
2022-10-28T03:07:27.821Z,973.27
2022-10-28T03:08:27.768Z,973.28
2022-10-28T03:09:27.750Z,973.30
2022-10-28T03:10:27.665Z,973.33
2022-10-28T03:11:27.613Z,973.35
2022-10-28T03:12:27.561Z,973.32
2022-10-28T03:13:27.509Z,973.36
2022-10-28T03:14:27.463Z,973.36
2022-10-28T03:15:27.437Z,973.38
2022-10-28T03:16:27.353Z,973.35
2022-10-28T03:17:27.302Z,973.37
2022-10-28T03:18:27.251Z,973.36
2022-10-28T03:19:27.198Z,973.38
2022-10-28T03:20:27.145Z,973.44
2022-10-28T03:21:27.111Z,973.41
2022-10-28T03:22:27.041Z,973.44
2022-10-28T03:23:26.986Z,973.49
2022-10-28T03:24:26.946Z,973.45
2022-10-28T03:25:26.884Z,973.44
2022-10-28T03:26:26.851Z,973.44
2022-10-28T03:27:26.779Z,973.42
2022-10-28T03:28:26.758Z,973.44
2022-10-28T03:29:26.677Z,973.48
2022-10-28T03:30:26.626Z,973.41
2022-10-28T03:31:26.587Z,973.37
2022-10-28T03:32:26.525Z,973.43
2022-10-28T03:33:26.470Z,973.39
2022-10-28T03:34:26.417Z,973.39
2022-10-28T03:35:26.381Z,973.41
2022-10-28T03:36:26.312Z,973.40
2022-10-28T03:37:26.260Z,973.40
2022-10-28T03:38:26.222Z,973.47
2022-10-28T03:39:26.157Z,973.48
2022-10-28T03:40:35.608Z,973.40
2022-10-28T03:41:26.105Z,973.39
2022-10-28T03:42:26.034Z,973.37
2022-10-28T03:43:25.982Z,973.36
2022-10-28T03:44:25.929Z,973.39
2022-10-28T03:45:25.935Z,973.39
2022-10-28T03:46:25.857Z,973.35
2022-10-28T03:47:25.777Z,973.38
2022-10-28T03:48:25.724Z,973.35
2022-10-28T03:49:25.668Z,973.38
2022-10-28T03:50:25.618Z,973.32
2022-10-28T03:51:25.560Z,973.36
2022-10-28T03:52:25.512Z,973.36
2022-10-28T03:53:29.015Z,973.37
2022-10-28T03:54:25.406Z,973.41
2022-10-28T03:55:25.336Z,973.42
2022-10-28T03:56:25.321Z,973.40
2022-10-28T03:57:25.264Z,973.45
2022-10-28T03:58:25.197Z,973.43
2022-10-28T03:59:26.613Z,973.42
2022-10-28T04:00:25.125Z,973.40
2022-10-28T04:01:25.160Z,973.39
2022-10-28T04:02:25.063Z,973.36
2022-10-28T04:03:24.961Z,973.42
2022-10-28T04:04:28.429Z,973.41
2022-10-28T04:05:24.842Z,973.46
2022-10-28T04:06:24.770Z,973.47
2022-10-28T04:07:24.758Z,973.45
2022-10-28T04:08:24.675Z,973.46
2022-10-28T04:09:24.629Z,973.46
2022-10-28T04:10:24.564Z,973.44
2022-10-28T04:11:24.550Z,973.48
2022-10-28T04:12:24.493Z,973.46
2022-10-28T04:13:24.430Z,973.47
2022-10-28T04:14:24.399Z,973.46
2022-10-28T04:15:24.318Z,973.51
2022-10-28T04:16:24.274Z,973.52
2022-10-28T04:17:24.238Z,973.49
2022-10-28T04:18:24.151Z,973.49
2022-10-28T04:19:24.106Z,973.49
2022-10-28T04:20:24.098Z,973.54
2022-10-28T04:21:24.042Z,973.52
2022-10-28T04:22:23.981Z,973.53
2022-10-28T04:23:23.941Z,973.49
2022-10-28T04:24:23.873Z,973.47
2022-10-28T04:25:23.817Z,973.44
2022-10-28T04:26:23.766Z,973.45
2022-10-28T04:27:23.841Z,973.47
2022-10-28T04:28:23.716Z,973.44
2022-10-28T04:29:23.646Z,973.46
2022-10-28T04:30:23.717Z,973.57
2022-10-28T04:31:25.520Z,973.50
2022-10-28T04:32:23.537Z,973.52
2022-10-28T04:33:23.508Z,973.54
2022-10-28T04:34:24.777Z,973.55
2022-10-28T04:35:25.045Z,973.54
2022-10-28T04:36:24.628Z,973.54
2022-10-28T04:37:24.123Z,973.56
2022-10-28T04:38:29.122Z,973.51
2022-10-28T04:39:23.419Z,973.53
2022-10-28T04:40:23.378Z,973.55
2022-10-28T04:41:23.119Z,973.55
2022-10-28T04:42:23.349Z,973.51
2022-10-28T04:43:23.057Z,973.57
2022-10-28T04:44:22.890Z,973.55
2022-10-28T04:45:22.881Z,973.60
2022-10-28T04:46:22.973Z,973.57
2022-10-28T04:47:22.981Z,973.55
2022-10-28T04:48:23.238Z,973.57
2022-10-28T04:49:22.727Z,973.51
2022-10-28T04:50:23.103Z,973.53
2022-10-28T04:51:22.454Z,973.52
2022-10-28T04:52:22.407Z,973.53
2022-10-28T04:53:22.375Z,973.53
2022-10-28T04:54:22.332Z,973.49
2022-10-28T04:55:22.267Z,973.46
2022-10-28T04:56:22.223Z,973.40
2022-10-28T04:57:22.171Z,973.41
2022-10-28T04:58:22.139Z,973.50
2022-10-28T04:59:22.058Z,973.46
2022-10-28T05:00:21.986Z,973.50
2022-10-28T05:01:22.034Z,973.54
2022-10-28T05:02:22.200Z,973.57
2022-10-28T05:03:21.872Z,973.56
2022-10-28T05:04:21.856Z,973.60
2022-10-28T05:05:21.740Z,973.62
2022-10-28T05:06:21.682Z,973.69
2022-10-28T05:07:23.553Z,973.75
2022-10-28T05:08:21.581Z,973.66
2022-10-28T05:09:21.556Z,973.74
2022-10-28T05:10:21.472Z,973.73
2022-10-28T05:11:21.460Z,973.79
2022-10-28T05:12:21.359Z,973.78
2022-10-28T05:13:21.358Z,973.79
2022-10-28T05:14:21.457Z,973.80
2022-10-28T05:15:21.217Z,973.81
2022-10-28T05:16:21.155Z,973.77
2022-10-28T05:17:21.121Z,973.86
2022-10-28T05:18:21.062Z,973.87
2022-10-28T05:19:21.034Z,973.94
2022-10-28T05:20:20.936Z,973.90
2022-10-28T05:21:20.891Z,973.83
2022-10-28T05:22:20.857Z,973.86
2022-10-28T05:23:20.826Z,973.88
2022-10-28T05:24:20.820Z,973.85
2022-10-28T05:25:20.699Z,973.88
2022-10-28T05:26:20.627Z,973.82
2022-10-28T05:27:20.678Z,973.82
2022-10-28T05:28:20.558Z,973.79
2022-10-28T05:29:20.485Z,973.72
2022-10-28T05:30:20.435Z,973.63
2022-10-28T05:31:20.435Z,973.54
2022-10-28T05:32:20.333Z,973.55
2022-10-28T05:33:20.262Z,973.52
2022-10-28T05:34:20.236Z,973.40
2022-10-28T05:35:20.178Z,973.26
2022-10-28T05:36:20.157Z,973.11
2022-10-28T05:37:20.111Z,973.06
2022-10-28T05:38:20.016Z,972.98
2022-10-28T05:39:19.999Z,973.08
2022-10-28T05:40:19.951Z,973.17
2022-10-28T05:41:20.735Z,973.16
2022-10-28T05:42:19.918Z,973.08
2022-10-28T05:43:19.784Z,973.03
2022-10-28T05:44:19.699Z,972.98
2022-10-28T05:45:19.776Z,972.93
2022-10-28T05:46:19.610Z,972.79
2022-10-28T05:47:19.584Z,972.66
2022-10-28T05:48:19.537Z,972.61
2022-10-28T05:49:19.456Z,972.58
2022-10-28T05:50:19.390Z,972.53
2022-10-28T05:51:19.341Z,972.33
2022-10-28T05:52:19.297Z,972.18
2022-10-28T05:53:19.247Z,972.11
2022-10-28T05:54:19.199Z,972.09
2022-10-28T05:55:19.167Z,971.99
2022-10-28T05:56:19.197Z,972.04
2022-10-28T05:57:19.058Z,972.02
2022-10-28T05:58:18.998Z,972.00
2022-10-28T05:59:18.940Z,972.08
2022-10-28T06:00:18.887Z,972.12
2022-10-28T06:01:18.882Z,972.14
2022-10-28T06:02:18.837Z,972.14
2022-10-28T06:03:18.751Z,972.11
2022-10-28T06:04:18.776Z,972.08
2022-10-28T06:05:18.623Z,972.12
2022-10-28T06:06:18.568Z,972.07
2022-10-28T06:07:18.551Z,972.06
2022-10-28T06:08:18.490Z,972.04
2022-10-28T06:09:18.434Z,972.06
2022-10-28T06:10:18.377Z,972.06
2022-10-28T06:11:16.833Z,972.14
2022-10-28T06:12:16.776Z,972.31
2022-10-28T06:13:16.672Z,972.35
2022-10-28T06:14:16.643Z,972.28
2022-10-28T06:15:16.572Z,972.31
2022-10-28T06:16:16.547Z,972.30
2022-10-28T06:17:16.505Z,972.32
2022-10-28T06:18:18.858Z,972.31
2022-10-28T06:19:16.384Z,972.36
2022-10-28T06:20:16.346Z,972.32
2022-10-28T06:21:16.305Z,972.38
2022-10-28T06:22:16.288Z,972.38
2022-10-28T06:23:16.196Z,972.40
2022-10-28T06:24:16.117Z,972.43
2022-10-28T06:25:16.085Z,972.50
2022-10-28T06:26:16.028Z,972.50
2022-10-28T06:27:16.051Z,972.52
2022-10-28T06:28:15.959Z,972.53
2022-10-28T06:29:15.886Z,972.56
2022-10-28T06:30:15.846Z,972.60
2022-10-28T06:31:15.812Z,972.63
2022-10-28T06:32:15.748Z,972.63
2022-10-28T06:33:15.710Z,972.71
2022-10-28T06:34:15.660Z,972.62
2022-10-28T06:35:15.619Z,972.65
2022-10-28T06:36:15.540Z,972.61
2022-10-28T06:37:15.492Z,972.64
2022-10-28T06:38:15.450Z,972.63
2022-10-28T06:39:15.491Z,972.63
2022-10-28T06:40:15.334Z,972.67
2022-10-28T06:41:15.311Z,972.68
2022-10-28T06:42:15.252Z,972.68
2022-10-28T06:43:15.168Z,972.66
2022-10-28T06:44:15.178Z,972.65
2022-10-28T06:45:15.085Z,972.68
2022-10-28T06:46:15.033Z,972.73
2022-10-28T06:47:16.502Z,972.71
2022-10-28T06:48:16.436Z,972.72
2022-10-28T06:49:16.432Z,972.75
2022-10-28T06:50:16.329Z,972.75
2022-10-28T06:51:16.303Z,972.74
2022-10-28T06:52:16.248Z,972.74
2022-10-28T06:53:16.225Z,972.80
2022-10-28T06:54:16.184Z,972.78
2022-10-28T06:55:16.092Z,972.79
2022-10-28T06:56:16.042Z,972.78
2022-10-28T06:57:16.007Z,972.83
2022-10-28T06:58:15.971Z,972.82
2022-10-28T06:59:15.918Z,972.85
2022-10-28T07:00:15.904Z,972.82
2022-10-28T07:01:15.850Z,972.90
2022-10-28T07:02:15.882Z,972.80
2022-10-28T07:03:15.711Z,972.85
2022-10-28T07:04:15.622Z,972.87
2022-10-28T07:05:15.590Z,972.83
2022-10-28T07:06:15.733Z,972.91
2022-10-28T07:07:15.517Z,972.96
2022-10-28T07:08:15.447Z,973.01
2022-10-28T07:09:15.395Z,973.02
2022-10-28T07:10:15.412Z,973.06
2022-10-28T07:11:15.286Z,973.01
2022-10-28T07:12:15.292Z,973.04
2022-10-28T07:13:15.182Z,973.09
2022-10-28T07:14:15.140Z,973.07
2022-10-28T07:15:15.083Z,973.10
2022-10-28T07:16:15.035Z,973.11
2022-10-28T07:17:15.014Z,973.23
2022-10-28T07:18:14.933Z,973.33
2022-10-28T07:19:17.923Z,973.28
2022-10-28T07:20:14.834Z,973.36
2022-10-28T07:21:14.793Z,973.27
2022-10-28T07:22:14.758Z,973.21
2022-10-28T07:23:14.752Z,973.26
2022-10-28T07:24:14.662Z,973.37
2022-10-28T07:25:14.593Z,973.41
2022-10-28T07:26:14.542Z,973.31
2022-10-28T07:27:14.492Z,973.40
2022-10-28T07:28:14.439Z,973.41
2022-10-28T07:29:14.404Z,973.31
2022-10-28T07:30:14.343Z,973.23
2022-10-28T07:31:14.335Z,973.31
2022-10-28T07:32:14.250Z,973.27
2022-10-28T07:33:14.226Z,973.32
2022-10-28T07:34:14.123Z,973.29
2022-10-28T07:35:14.095Z,973.62
2022-10-28T07:36:14.039Z,973.66
2022-10-28T07:37:14.023Z,973.67
2022-10-28T07:38:13.958Z,973.79
2022-10-28T07:39:13.921Z,973.60
2022-10-28T07:40:13.831Z,973.29
2022-10-28T07:41:13.806Z,973.26
2022-10-28T07:42:13.792Z,973.30
2022-10-28T07:43:13.705Z,973.24
2022-10-28T07:44:13.679Z,973.37
2022-10-28T07:45:13.601Z,973.35
2022-10-28T07:46:13.580Z,973.38
2022-10-28T07:47:13.537Z,973.32
2022-10-28T07:48:13.470Z,973.38
2022-10-28T07:49:13.450Z,973.36
2022-10-28T07:50:13.398Z,973.40
2022-10-28T07:51:13.321Z,973.37
2022-10-28T07:52:13.293Z,973.73
2022-10-28T07:53:13.250Z,973.75
2022-10-28T07:54:13.188Z,973.71
2022-10-28T07:55:13.133Z,973.75
2022-10-28T07:56:13.200Z,973.81
2022-10-28T07:57:13.056Z,973.84
2022-10-28T07:58:12.982Z,973.82
2022-10-28T07:59:12.956Z,973.82
2022-10-28T08:00:12.898Z,973.84
2022-10-28T08:01:12.977Z,973.88
2022-10-28T08:02:12.853Z,973.92
2022-10-28T08:03:12.752Z,973.97
2022-10-28T08:04:12.713Z,973.95
2022-10-28T08:05:12.672Z,973.98
2022-10-28T08:06:12.651Z,973.96
2022-10-28T08:07:12.565Z,973.94
2022-10-28T08:08:12.516Z,973.96
2022-10-28T08:09:12.486Z,974.02
2022-10-28T08:10:12.473Z,974.01
2022-10-28T08:11:12.519Z,973.94
2022-10-28T08:12:12.345Z,974.04
2022-10-28T08:13:12.297Z,973.94
2022-10-28T08:14:12.255Z,974.02
2022-10-28T08:15:12.199Z,974.02
2022-10-28T08:16:12.183Z,974.00
2022-10-28T08:17:12.150Z,974.05
2022-10-28T08:18:12.080Z,974.10
2022-10-28T08:19:12.033Z,974.05
2022-10-28T08:20:12.005Z,973.98
2022-10-28T08:21:11.947Z,974.03
2022-10-28T08:22:11.940Z,974.04
2022-10-28T08:23:11.859Z,974.02
2022-10-28T08:24:11.842Z,973.97
2022-10-28T08:25:11.787Z,973.97
2022-10-28T08:26:11.745Z,973.97
2022-10-28T08:27:11.707Z,974.04
2022-10-28T08:28:11.690Z,973.94
2022-10-28T08:29:11.617Z,973.95
2022-10-28T08:30:11.576Z,973.87
2022-10-28T08:31:11.550Z,973.82
2022-10-28T08:32:11.505Z,973.73
2022-10-28T08:33:11.514Z,973.75
2022-10-28T08:34:11.525Z,973.76
2022-10-28T08:35:11.374Z,973.67
2022-10-28T08:36:11.320Z,973.67
2022-10-28T08:37:11.416Z,973.73
2022-10-28T08:38:11.257Z,973.75
2022-10-28T08:39:11.242Z,973.77
2022-10-28T08:40:11.173Z,973.81
2022-10-28T08:41:11.136Z,973.93
2022-10-28T08:42:11.098Z,973.99
2022-10-28T08:43:11.056Z,973.98
2022-10-28T08:44:11.051Z,974.10
2022-10-28T08:45:15.459Z,974.12
2022-10-28T08:46:10.943Z,973.73
2022-10-28T08:47:10.908Z,973.93
2022-10-28T08:48:10.857Z,974.01
2022-10-28T08:49:10.817Z,974.04
2022-10-28T08:50:10.806Z,974.03
2022-10-28T08:51:10.713Z,973.95
2022-10-28T08:52:10.697Z,973.89
2022-10-28T08:53:10.655Z,973.87
2022-10-28T08:54:10.593Z,973.85
2022-10-28T08:55:10.660Z,973.77
2022-10-28T08:56:10.540Z,973.69
2022-10-28T08:57:12.579Z,973.56
2022-10-28T08:58:10.431Z,973.72
2022-10-28T08:59:10.401Z,973.82
2022-10-28T09:00:10.415Z,973.84
2022-10-28T09:01:10.429Z,973.90
2022-10-28T09:02:10.283Z,973.93
2022-10-28T09:03:10.255Z,973.97
2022-10-28T09:04:10.279Z,973.99
2022-10-28T09:05:10.184Z,974.01
2022-10-28T09:06:10.128Z,974.05
2022-10-28T09:07:10.086Z,974.02
2022-10-28T09:08:10.042Z,974.06
2022-10-28T09:09:10.001Z,974.00
2022-10-28T09:10:10.031Z,973.88
2022-10-28T09:11:09.925Z,973.97
2022-10-28T09:12:09.888Z,974.01
2022-10-28T09:13:09.836Z,974.02
2022-10-28T09:14:09.824Z,974.04
2022-10-28T09:15:09.802Z,974.07
2022-10-28T09:16:12.430Z,974.05
2022-10-28T09:17:09.690Z,974.04
2022-10-28T09:18:09.625Z,974.07
2022-10-28T09:19:09.601Z,974.03
2022-10-28T09:20:09.570Z,974.05
2022-10-28T09:21:09.553Z,973.97
2022-10-28T09:22:09.504Z,973.93
2022-10-28T09:23:09.461Z,973.88
2022-10-28T09:24:09.412Z,973.85
2022-10-28T09:25:09.390Z,973.80
2022-10-28T09:26:09.323Z,973.72
2022-10-28T09:27:09.318Z,973.72
2022-10-28T09:28:09.266Z,973.73
2022-10-28T09:29:09.194Z,973.73
2022-10-28T09:30:09.260Z,973.69
2022-10-28T09:31:09.110Z,973.68
2022-10-28T09:32:09.154Z,973.68
2022-10-28T09:33:09.056Z,973.61
2022-10-28T09:34:09.025Z,973.64
2022-10-28T09:35:08.986Z,973.62
2022-10-28T09:36:08.962Z,973.61
2022-10-28T09:37:08.908Z,973.65
2022-10-28T09:38:10.240Z,973.62
2022-10-28T09:39:08.856Z,973.63
2022-10-28T09:40:08.782Z,973.61
2022-10-28T09:41:08.730Z,973.67
2022-10-28T09:42:08.718Z,973.69
2022-10-28T09:43:08.642Z,973.72
2022-10-28T09:44:08.651Z,973.73
2022-10-28T09:45:08.586Z,973.65
2022-10-28T09:46:08.550Z,973.65
2022-10-28T09:47:08.533Z,973.60
2022-10-28T09:48:08.463Z,973.70
2022-10-28T09:49:08.421Z,973.73
2022-10-28T09:50:08.387Z,973.69
2022-10-28T09:51:08.353Z,973.76
2022-10-28T09:52:08.338Z,973.84
2022-10-28T09:53:08.263Z,973.78
2022-10-28T09:54:08.223Z,973.84
2022-10-28T09:55:08.189Z,973.85
2022-10-28T09:57:08.124Z,973.88
2022-10-28T09:58:08.100Z,973.89
2022-10-28T09:59:08.031Z,973.93
2022-10-28T10:00:08.019Z,973.93
2022-10-28T10:01:07.942Z,973.99
2022-10-28T10:02:08.051Z,973.93
2022-10-28T10:03:07.864Z,973.92
2022-10-28T10:04:07.825Z,973.87
2022-10-28T10:05:07.780Z,973.86
2022-10-28T10:06:07.741Z,973.87
2022-10-28T10:07:07.723Z,973.83
2022-10-28T10:08:07.649Z,973.84
2022-10-28T10:09:07.743Z,973.79
2022-10-28T10:10:07.608Z,973.83
2022-10-28T10:11:07.541Z,973.85
2022-10-28T10:12:07.498Z,973.92
2022-10-28T10:13:07.478Z,973.93
2022-10-28T10:14:07.422Z,973.84
2022-10-28T10:15:07.375Z,973.88
2022-10-28T10:16:07.346Z,973.91
2022-10-28T10:17:07.334Z,973.78
2022-10-28T10:18:07.259Z,973.80
2022-10-28T10:19:07.240Z,973.76
2022-10-28T10:20:07.168Z,973.86
2022-10-28T10:21:07.111Z,973.88
2022-10-28T10:22:07.091Z,973.87
2022-10-28T10:23:07.060Z,973.87
2022-10-28T10:24:07.016Z,973.88
2022-10-28T10:25:06.995Z,973.68
2022-10-28T10:26:09.683Z,973.70
2022-10-28T10:27:06.904Z,973.62
2022-10-28T10:28:06.847Z,973.70
2022-10-28T10:29:06.772Z,973.67
2022-10-28T10:30:06.773Z,973.71
2022-10-28T10:31:06.755Z,973.73
2022-10-28T10:32:06.682Z,973.67
2022-10-28T10:33:06.621Z,973.62
2022-10-28T10:34:06.603Z,973.59
2022-10-28T10:35:06.520Z,973.56
2022-10-28T10:36:06.513Z,973.56
2022-10-28T10:37:06.464Z,973.56
2022-10-28T10:38:06.385Z,973.55
2022-10-28T10:39:06.368Z,973.48
2022-10-28T10:40:06.326Z,973.46
2022-10-28T10:41:06.294Z,973.43
2022-10-28T10:42:06.257Z,973.38
2022-10-28T10:43:13.779Z,973.39
2022-10-28T10:45:06.221Z,973.45
2022-10-28T10:46:06.045Z,973.47
2022-10-28T10:47:06.536Z,973.55
2022-10-28T10:48:05.982Z,973.56
2022-10-28T10:49:05.920Z,973.55
2022-10-28T10:50:05.873Z,973.58
2022-10-28T10:51:05.848Z,973.59
2022-10-28T10:52:05.786Z,973.54
2022-10-28T10:53:05.724Z,973.56
2022-10-28T10:54:05.667Z,973.52
2022-10-28T10:55:05.638Z,973.56
2022-10-28T10:56:05.624Z,973.56
2022-10-28T10:57:05.577Z,973.61
2022-10-28T10:58:05.497Z,973.60
2022-10-28T10:59:05.459Z,973.60
2022-10-28T11:00:05.394Z,973.56
2022-10-28T11:01:05.389Z,973.59
2022-10-28T11:02:05.466Z,973.56
2022-10-28T11:03:05.311Z,973.58
2022-10-28T11:04:05.219Z,973.56
2022-10-28T11:05:05.166Z,973.54
2022-10-28T11:06:22.491Z,973.57
2022-10-28T11:07:05.104Z,973.57
2022-10-28T11:08:05.037Z,973.58
2022-10-28T11:09:05.093Z,973.56
2022-10-28T11:10:04.940Z,973.63
2022-10-28T11:11:04.927Z,973.55
2022-10-28T11:12:05.648Z,973.43
2022-10-28T11:13:04.842Z,973.37
2022-10-28T11:14:04.772Z,973.45
2022-10-28T11:15:04.764Z,973.48
2022-10-28T11:16:04.704Z,973.46
2022-10-28T11:17:04.653Z,973.46
2022-10-28T11:18:04.598Z,973.42
2022-10-28T11:19:04.595Z,973.43
2022-10-28T11:20:04.573Z,973.31
2022-10-28T11:21:04.552Z,973.29
2022-10-28T11:22:04.453Z,973.29
2022-10-28T11:23:06.233Z,973.35
2022-10-28T11:24:04.312Z,973.32
2022-10-28T11:25:04.302Z,973.29
2022-10-28T11:26:04.223Z,973.34
2022-10-28T11:27:04.217Z,973.27
2022-10-28T11:28:04.666Z,973.24
2022-10-28T11:29:04.120Z,973.25
2022-10-28T11:30:04.050Z,973.20
2022-10-28T11:31:04.047Z,973.21
2022-10-28T11:32:03.999Z,973.11
2022-10-28T11:33:28.339Z,973.25
2022-10-28T11:34:03.886Z,973.20
2022-10-28T11:35:03.836Z,973.12
2022-10-28T11:36:03.780Z,973.15
2022-10-28T11:37:03.763Z,973.17
2022-10-28T11:38:03.706Z,973.18
2022-10-28T11:39:03.688Z,973.11
2022-10-28T11:40:03.613Z,973.09
2022-10-28T11:41:03.598Z,973.06
2022-10-28T11:42:03.522Z,973.10
2022-10-28T11:43:03.476Z,973.03
2022-10-28T11:44:05.411Z,973.02
2022-10-28T11:45:03.370Z,973.12
2022-10-28T11:46:03.361Z,973.09
2022-10-28T11:47:05.273Z,973.07
2022-10-28T11:48:03.304Z,973.12
2022-10-28T11:49:03.192Z,973.07
2022-10-28T11:50:03.188Z,973.10
2022-10-28T11:51:03.125Z,973.13
2022-10-28T11:52:03.077Z,973.07
2022-10-28T11:53:03.036Z,973.06
2022-10-28T11:54:02.975Z,973.05
2022-10-28T11:55:02.928Z,973.09
2022-10-28T11:56:02.887Z,973.05
2022-10-28T11:57:02.852Z,973.11
2022-10-28T11:58:02.949Z,973.03
2022-10-28T11:59:02.777Z,972.99
2022-10-28T12:00:02.693Z,973.08
2022-10-28T12:01:02.657Z,973.04
2022-10-28T12:02:02.787Z,973.00
2022-10-28T12:03:02.928Z,972.91
2022-10-28T12:04:02.592Z,973.01
2022-10-28T12:05:02.479Z,972.98
2022-10-28T12:06:02.432Z,972.94
2022-10-28T12:07:02.392Z,972.91
2022-10-28T12:08:02.370Z,972.96
2022-10-28T12:09:02.367Z,972.89
2022-10-28T12:10:02.237Z,972.87
2022-10-28T12:11:02.207Z,972.91
2022-10-28T12:12:02.169Z,972.84
2022-10-28T12:13:02.162Z,972.90
2022-10-28T12:15:02.034Z,972.85
2022-10-28T12:16:02.041Z,972.83
2022-10-28T12:17:01.957Z,972.76
2022-10-28T12:18:02.036Z,972.81
2022-10-28T12:19:01.845Z,972.79
2022-10-28T12:20:01.896Z,972.76
2022-10-28T12:21:01.789Z,972.78
2022-10-28T12:22:02.243Z,972.80
2022-10-28T12:23:01.678Z,972.66
2022-10-28T12:24:01.602Z,972.72
2022-10-28T12:25:01.664Z,972.71
2022-10-28T12:26:01.524Z,972.68
2022-10-28T12:27:01.500Z,972.68
2022-10-28T12:28:01.501Z,972.66
2022-10-28T12:29:01.447Z,972.67
2022-10-28T12:30:01.343Z,972.61
2022-10-28T12:31:01.283Z,972.55